createdAt,value
2023-05-06T00:00:09.082Z,9.73
2023-05-06T00:02:39.353Z,10.30
2023-05-06T00:05:06.946Z,9.60
2023-05-06T00:07:34.430Z,9.43
2023-05-06T00:10:01.698Z,9.10
2023-05-06T00:12:29.111Z,9.40
2023-05-06T00:14:56.442Z,8.23
2023-05-06T00:17:23.908Z,9.60
2023-05-06T00:19:52.459Z,9.57
2023-05-06T00:22:19.828Z,10.73
2023-05-06T00:24:47.346Z,9.48
2023-05-06T00:27:14.677Z,10.90
2023-05-06T00:29:42.068Z,10.15
2023-05-06T00:32:09.511Z,11.00
2023-05-06T00:34:36.822Z,9.77
2023-05-06T00:37:04.198Z,9.77
2023-05-06T00:39:31.523Z,9.60
2023-05-06T00:42:02.400Z,11.35
2023-05-06T00:44:30.464Z,10.32
2023-05-06T00:46:58.207Z,12.23
2023-05-06T00:49:25.632Z,12.32
2023-05-06T00:51:53.484Z,11.57
2023-05-06T00:54:21.456Z,12.13
2023-05-06T00:56:48.855Z,13.60
2023-05-06T00:59:16.206Z,14.03
2023-05-06T01:01:43.849Z,11.05
2023-05-06T01:04:11.224Z,11.07
2023-05-06T01:06:43.435Z,12.98
2023-05-06T01:09:33.960Z,10.68
2023-05-06T01:12:07.843Z,11.27
2023-05-06T01:14:51.132Z,11.82
2023-05-06T01:17:19.720Z,9.90
2023-05-06T01:19:49.760Z,12.02
2023-05-06T01:22:17.308Z,11.15
2023-05-06T01:24:45.637Z,11.10
2023-05-06T01:27:13.755Z,14.20
2023-05-06T01:29:42.963Z,11.52
2023-05-06T01:32:24.550Z,12.00
2023-05-06T01:35:07.461Z,9.75
2023-05-06T01:37:54.918Z,9.57
2023-05-06T01:40:25.932Z,10.95
2023-05-06T01:42:53.850Z,12.63
2023-05-06T01:45:21.575Z,13.90
2023-05-06T01:47:49.150Z,13.43
2023-05-06T01:50:16.632Z,14.27
2023-05-06T01:52:43.937Z,13.75
2023-05-06T01:55:11.558Z,13.48
2023-05-06T01:57:39.992Z,12.63
2023-05-06T02:00:07.686Z,12.82
2023-05-06T02:02:39.558Z,11.00
2023-05-06T02:05:07.950Z,13.63
2023-05-06T02:07:39.463Z,13.50
2023-05-06T02:10:08.567Z,12.90
2023-05-06T02:12:38.923Z,13.23
2023-05-06T02:15:06.581Z,13.77
2023-05-06T02:17:35.862Z,13.50
2023-05-06T02:20:03.280Z,16.05
2023-05-06T02:22:30.597Z,15.13
2023-05-06T02:24:57.924Z,12.25
2023-05-06T02:27:25.280Z,14.50
2023-05-06T02:29:52.696Z,12.70
2023-05-06T02:32:20.023Z,15.48
2023-05-06T02:34:47.355Z,14.48
2023-05-06T02:37:14.667Z,13.98
2023-05-06T02:39:41.971Z,15.43
2023-05-06T02:42:09.236Z,14.63
2023-05-06T02:44:36.688Z,13.45
2023-05-06T02:47:04.065Z,20.25
2023-05-06T02:49:31.335Z,14.55
2023-05-06T02:51:58.639Z,15.37
2023-05-06T02:54:27.368Z,16.13
2023-05-06T02:56:54.764Z,13.60
2023-05-06T02:59:22.187Z,13.23
2023-05-06T03:01:49.541Z,14.10
2023-05-06T03:04:16.945Z,14.83
2023-05-06T03:06:44.197Z,13.02
2023-05-06T03:09:11.718Z,13.35
2023-05-06T03:11:39.302Z,12.05
2023-05-06T03:14:07.574Z,13.15
2023-05-06T03:16:35.727Z,13.57
2023-05-06T03:19:03.887Z,17.40
2023-05-06T03:21:32.166Z,15.50
2023-05-06T03:23:59.926Z,14.68
2023-05-06T03:26:29.694Z,15.88
2023-05-06T03:28:57.583Z,15.50
2023-05-06T03:31:25.906Z,14.15
2023-05-06T03:33:53.944Z,14.23
2023-05-06T03:36:23.924Z,14.77
2023-05-06T03:38:52.923Z,16.98
2023-05-06T03:41:21.371Z,16.20
2023-05-06T03:43:49.454Z,15.90
2023-05-06T03:46:19.722Z,13.25
2023-05-06T03:48:47.174Z,14.77
2023-05-06T03:51:17.610Z,14.13
2023-05-06T03:53:44.995Z,15.33
2023-05-06T03:56:12.362Z,14.77
2023-05-06T03:58:39.813Z,17.75
2023-05-06T04:01:09.797Z,14.85
2023-05-06T04:03:37.205Z,15.32
2023-05-06T04:06:06.049Z,15.90
2023-05-06T04:08:33.323Z,15.77
2023-05-06T04:11:08.804Z,16.42
2023-05-06T04:13:37.602Z,17.02
2023-05-06T04:16:10.750Z,15.80
2023-05-06T04:18:41.812Z,17.23
2023-05-06T04:21:12.633Z,23.00
2023-05-06T04:23:42.795Z,32.58
2023-05-06T04:26:12.164Z,24.90
2023-05-06T04:28:41.993Z,17.55
2023-05-06T04:31:11.057Z,55.27
2023-05-06T04:33:43.467Z,30.13
2023-05-06T04:36:15.812Z,43.10
2023-05-06T04:38:53.327Z,19.23
2023-05-06T04:41:22.148Z,20.38
2023-05-06T04:43:49.480Z,15.47
2023-05-06T04:46:21.611Z,24.05
2023-05-06T04:48:49.967Z,18.17
2023-05-06T04:51:18.780Z,25.77
2023-05-06T04:53:46.744Z,24.10
2023-05-06T04:56:14.562Z,20.00
2023-05-06T04:58:41.928Z,16.65
2023-05-06T05:01:11.439Z,17.13
2023-05-06T05:03:38.887Z,15.68
2023-05-06T05:06:07.395Z,14.85
2023-05-06T05:08:34.713Z,15.87
2023-05-06T05:11:02.556Z,15.82
2023-05-06T05:13:31.621Z,13.20
2023-05-06T05:15:59.451Z,15.52
2023-05-06T05:18:29.947Z,13.95
2023-05-06T05:21:02.885Z,15.47
2023-05-06T05:23:31.509Z,16.15
2023-05-06T05:25:59.929Z,13.85
2023-05-06T05:28:28.103Z,12.82
2023-05-06T05:31:02.580Z,13.85
2023-05-06T05:33:31.568Z,14.80
2023-05-06T05:35:59.626Z,14.45
2023-05-06T05:38:28.154Z,13.90
2023-05-06T05:40:55.888Z,16.52
2023-05-06T05:43:26.002Z,14.75
2023-05-06T05:45:55.189Z,14.90
2023-05-06T05:48:22.673Z,16.23
2023-05-06T05:50:50.988Z,13.95
2023-05-06T05:53:18.569Z,14.98
2023-05-06T05:55:46.426Z,14.85
2023-05-06T05:58:13.873Z,14.73
2023-05-06T06:00:42.546Z,14.30
2023-05-06T06:03:13.783Z,14.93
2023-05-06T06:05:41.296Z,14.02
2023-05-06T06:08:09.360Z,14.02
2023-05-06T06:10:36.724Z,13.27
2023-05-06T06:13:10.401Z,15.00
2023-05-06T06:15:37.903Z,13.50
2023-05-06T06:18:08.077Z,15.48
2023-05-06T06:20:36.680Z,13.57
2023-05-06T06:23:03.966Z,14.83
2023-05-06T06:25:31.302Z,13.27
2023-05-06T06:27:59.117Z,11.43
2023-05-06T06:30:26.551Z,15.00
2023-05-06T06:32:55.886Z,14.15
2023-05-06T06:35:24.324Z,12.27
2023-05-06T06:37:51.771Z,13.55
2023-05-06T06:40:19.081Z,13.60
2023-05-06T06:42:47.089Z,14.45
2023-05-06T06:45:53.136Z,13.07
2023-05-06T06:48:20.704Z,15.50
2023-05-06T06:50:47.948Z,12.73
2023-05-06T06:53:15.423Z,12.75
2023-05-06T06:55:46.268Z,13.95
2023-05-06T06:58:13.689Z,13.43
2023-05-06T07:00:40.991Z,12.70
2023-05-06T07:03:08.530Z,13.30
2023-05-06T07:05:36.305Z,14.73
2023-05-06T07:08:03.674Z,12.93
2023-05-06T07:10:31.056Z,13.30
2023-05-06T07:12:58.480Z,12.37
2023-05-06T07:15:26.102Z,15.07
2023-05-06T07:17:53.381Z,15.45
2023-05-06T07:20:21.233Z,13.80
2023-05-06T07:22:48.517Z,12.18
2023-05-06T07:25:15.988Z,13.67
2023-05-06T07:27:43.471Z,14.07
2023-05-06T07:30:11.254Z,14.15
2023-05-06T07:32:38.665Z,17.00
2023-05-06T07:35:06.303Z,14.20
2023-05-06T07:37:33.736Z,14.23
2023-05-06T07:40:01.087Z,14.70
2023-05-06T07:42:28.390Z,17.67
2023-05-06T07:44:55.686Z,15.27
2023-05-06T07:47:28.134Z,22.55
2023-05-06T07:49:55.999Z,22.10
2023-05-06T07:52:23.713Z,17.98
2023-05-06T07:54:51.264Z,18.63
2023-05-06T07:57:18.595Z,15.73
2023-05-06T07:59:49.612Z,18.38
2023-05-06T08:02:17.149Z,20.60
2023-05-06T08:04:45.294Z,17.05
2023-05-06T08:07:12.725Z,16.42
2023-05-06T08:09:40.105Z,18.52
2023-05-06T08:12:07.585Z,16.33
2023-05-06T08:14:34.878Z,17.27
2023-05-06T08:17:02.562Z,20.10
2023-05-06T08:19:29.968Z,23.30
2023-05-06T08:21:57.323Z,22.92
2023-05-06T08:24:24.996Z,22.70
2023-05-06T08:26:52.337Z,26.00
2023-05-06T08:29:19.861Z,24.00
2023-05-06T08:31:47.852Z,26.95
2023-05-06T08:34:18.457Z,27.67
2023-05-06T08:36:45.909Z,25.67
2023-05-06T08:39:14.563Z,28.33
2023-05-06T08:41:42.578Z,25.65
2023-05-06T08:44:09.906Z,30.02
2023-05-06T08:46:37.317Z,27.63
2023-05-06T08:49:04.705Z,25.15
2023-05-06T08:51:33.002Z,25.33
2023-05-06T08:54:02.476Z,28.45
2023-05-06T08:56:31.148Z,25.77
2023-05-06T08:58:59.063Z,24.88
2023-05-06T09:01:28.074Z,26.75
2023-05-06T09:03:56.681Z,25.97
2023-05-06T09:06:25.053Z,25.60
2023-05-06T09:08:52.380Z,23.08
2023-05-06T09:11:24.189Z,22.20
2023-05-06T09:13:51.871Z,20.38
2023-05-06T09:16:31.612Z,21.77
2023-05-06T09:18:59.535Z,17.60
2023-05-06T09:21:31.317Z,17.77
2023-05-06T09:23:59.124Z,19.65
2023-05-06T09:26:27.651Z,18.25
2023-05-06T09:28:55.095Z,18.23
2023-05-06T09:31:22.472Z,18.75
2023-05-06T09:33:49.824Z,16.48
2023-05-06T09:36:17.278Z,19.08
2023-05-06T09:38:44.703Z,19.63
2023-05-06T09:41:13.287Z,17.17
2023-05-06T09:43:44.791Z,17.77
2023-05-06T09:46:13.421Z,15.15
2023-05-06T09:48:41.658Z,16.23
2023-05-06T09:51:09.368Z,14.95
2023-05-06T09:53:40.096Z,18.83
2023-05-06T09:56:08.486Z,19.33
2023-05-06T09:58:37.188Z,18.83
2023-05-06T10:01:05.082Z,14.25
2023-05-06T10:03:32.974Z,12.48
2023-05-06T10:06:06.327Z,14.27
2023-05-06T10:08:37.553Z,11.02
2023-05-06T10:11:06.294Z,11.55
2023-05-06T10:13:33.850Z,12.07
2023-05-06T10:16:02.873Z,13.20
2023-05-06T10:18:31.107Z,11.50
2023-05-06T10:21:00.241Z,11.98
2023-05-06T10:23:36.850Z,11.32
2023-05-06T10:26:08.043Z,12.32
2023-05-06T10:28:39.566Z,15.50
2023-05-06T10:31:09.787Z,16.37
2023-05-06T10:33:37.181Z,12.07
2023-05-06T10:36:25.396Z,11.60
2023-05-06T10:38:57.159Z,11.55
2023-05-06T10:41:28.035Z,11.45
2023-05-06T10:44:00.181Z,12.43
2023-05-06T10:46:31.107Z,10.55
2023-05-06T10:49:13.805Z,11.85
2023-05-06T10:51:44.186Z,10.15
2023-05-06T10:54:22.389Z,12.38
2023-05-06T10:56:49.776Z,10.87
2023-05-06T10:59:22.014Z,11.25
2023-05-06T11:01:56.254Z,10.27
2023-05-06T11:04:23.791Z,11.35
2023-05-06T11:06:51.774Z,10.70
2023-05-06T11:09:20.559Z,12.07
2023-05-06T11:12:06.629Z,8.32
2023-05-06T11:14:38.621Z,10.20
2023-05-06T11:17:06.124Z,12.90
2023-05-06T11:19:37.381Z,10.98
2023-05-06T11:22:05.945Z,10.50
2023-05-06T11:24:33.367Z,10.02
2023-05-06T11:27:01.298Z,11.63
2023-05-06T11:29:28.756Z,10.23
2023-05-06T11:31:56.187Z,9.98
2023-05-06T11:34:23.552Z,10.23
2023-05-06T11:36:58.460Z,10.35
2023-05-06T11:39:30.695Z,10.85
2023-05-06T11:41:59.113Z,8.05
2023-05-06T11:44:30.946Z,10.05
2023-05-06T11:46:58.993Z,10.67
2023-05-06T11:49:27.541Z,9.65
2023-05-06T11:51:55.677Z,10.60
2023-05-06T11:54:23.657Z,9.32
2023-05-06T11:56:52.055Z,9.90
2023-05-06T11:59:26.465Z,9.70
2023-05-06T12:01:53.796Z,9.10
2023-05-06T12:04:21.215Z,7.30
2023-05-06T12:06:48.699Z,9.20
2023-05-06T12:09:16.161Z,8.13
2023-05-06T12:11:45.046Z,9.37
2023-05-06T12:14:13.081Z,8.18
2023-05-06T12:16:40.793Z,7.88
2023-05-06T12:19:08.321Z,7.35
2023-05-06T12:21:38.646Z,8.07
2023-05-06T12:24:07.427Z,8.33
2023-05-06T12:26:45.737Z,9.75
2023-05-06T12:29:15.720Z,7.00
2023-05-06T12:31:43.341Z,7.07
2023-05-06T12:34:11.247Z,6.75
2023-05-06T12:36:42.227Z,8.60
2023-05-06T12:39:11.786Z,11.55
2023-05-06T12:41:43.442Z,7.70
2023-05-06T12:44:29.320Z,7.25
2023-05-06T12:46:56.811Z,5.93
2023-05-06T12:49:24.133Z,4.53
2023-05-06T12:52:10.727Z,8.35
2023-05-06T12:54:38.230Z,7.82
2023-05-06T12:57:06.123Z,8.25
2023-05-06T12:59:33.754Z,8.35
2023-05-06T13:02:01.171Z,8.73
2023-05-06T13:04:28.696Z,6.78
2023-05-06T13:06:57.042Z,8.90
2023-05-06T13:09:24.416Z,6.93
2023-05-06T13:11:51.750Z,6.50
2023-05-06T13:14:19.036Z,7.27
2023-05-06T13:16:46.606Z,6.38
2023-05-06T13:19:25.142Z,6.60
2023-05-06T13:22:00.607Z,8.00
2023-05-06T13:24:28.333Z,6.75
2023-05-06T13:26:57.106Z,8.70
2023-05-06T13:29:25.159Z,8.43
2023-05-06T13:31:52.641Z,9.13
2023-05-06T13:34:19.933Z,8.13
2023-05-06T13:36:49.319Z,10.43
2023-05-06T13:39:16.714Z,7.80
2023-05-06T13:41:47.487Z,7.43
2023-05-06T13:44:14.783Z,7.97
2023-05-06T13:46:44.163Z,10.85
2023-05-06T13:49:13.939Z,8.57
2023-05-06T13:51:41.215Z,7.13
2023-05-06T13:54:08.610Z,6.72
2023-05-06T13:56:35.893Z,6.78
2023-05-06T13:59:03.231Z,6.78
2023-05-06T14:01:30.753Z,7.00
2023-05-06T14:03:58.241Z,7.07
2023-05-06T14:06:25.556Z,9.75
2023-05-06T14:08:52.823Z,6.07
2023-05-06T14:11:20.053Z,6.57
2023-05-06T14:13:47.385Z,6.07
2023-05-06T14:16:16.683Z,6.00
2023-05-06T14:18:44.107Z,7.18
2023-05-06T14:21:11.392Z,7.18
2023-05-06T14:23:38.725Z,6.60
2023-05-06T14:26:06.165Z,5.65
2023-05-06T14:28:33.573Z,6.97
2023-05-06T14:31:00.888Z,4.50
2023-05-06T14:33:28.261Z,5.85
2023-05-06T14:35:55.601Z,6.38
2023-05-06T14:38:22.855Z,6.40
2023-05-06T14:40:51.020Z,7.53
2023-05-06T14:43:19.181Z,5.78
2023-05-06T14:45:46.530Z,6.60
2023-05-06T14:48:13.899Z,5.05
2023-05-06T14:50:41.246Z,5.85
2023-05-06T14:53:08.644Z,6.43
2023-05-06T14:55:36.142Z,8.77
2023-05-06T14:58:03.780Z,7.13
2023-05-06T15:00:31.129Z,7.97
2023-05-06T15:02:59.326Z,8.27
2023-05-06T15:05:26.992Z,6.37
2023-05-06T15:07:54.348Z,6.95
2023-05-06T15:10:21.681Z,6.70
2023-05-06T15:12:48.961Z,7.22
2023-05-06T15:15:16.298Z,6.22
2023-05-06T15:17:43.753Z,5.50
2023-05-06T15:20:11.455Z,5.45
2023-05-06T15:22:39.642Z,6.28
2023-05-06T15:25:08.312Z,5.43
2023-05-06T15:27:37.416Z,4.35
2023-05-06T15:30:05.326Z,8.30
2023-05-06T15:32:32.662Z,4.50
2023-05-06T15:35:00.014Z,5.00
2023-05-06T15:37:27.273Z,5.63
2023-05-06T15:39:54.606Z,4.47
2023-05-06T15:42:21.924Z,5.53
2023-05-06T15:44:51.518Z,4.90
2023-05-06T15:47:19.038Z,8.48
2023-05-06T15:49:54.106Z,6.05
2023-05-06T15:52:22.689Z,6.93
2023-05-06T15:54:50.402Z,4.13
2023-05-06T15:57:18.278Z,4.63
2023-05-06T15:59:45.777Z,5.95
2023-05-06T16:02:26.728Z,4.20
2023-05-06T16:04:55.299Z,4.07
2023-05-06T16:07:22.890Z,4.23
2023-05-06T16:09:50.789Z,5.55
2023-05-06T16:12:18.272Z,4.63
2023-05-06T16:14:45.675Z,4.13
2023-05-06T16:17:13.066Z,5.15
2023-05-06T16:19:40.327Z,4.43
2023-05-06T16:22:07.664Z,4.53
2023-05-06T16:24:34.966Z,4.07
2023-05-06T16:27:02.476Z,4.10
2023-05-06T16:29:29.816Z,4.35
2023-05-06T16:31:57.221Z,4.53
2023-05-06T16:34:24.719Z,4.93
2023-05-06T16:36:52.487Z,5.07
2023-05-06T16:39:20.010Z,5.50
2023-05-06T16:41:47.520Z,4.95
2023-05-06T16:44:14.884Z,4.47
2023-05-06T16:46:42.237Z,3.20
2023-05-06T16:49:09.731Z,7.35
2023-05-06T16:51:37.010Z,4.57
2023-05-06T16:54:04.404Z,6.28
2023-05-06T16:56:43.981Z,4.03
2023-05-06T16:59:20.879Z,3.33
2023-05-06T17:01:49.399Z,5.65
2023-05-06T17:04:16.907Z,7.95
2023-05-06T17:06:44.300Z,7.03
2023-05-06T17:09:12.222Z,5.40
2023-05-06T17:11:39.566Z,6.10
2023-05-06T17:14:06.931Z,6.30
2023-05-06T17:16:34.254Z,5.43
2023-05-06T17:19:01.573Z,8.98
2023-05-06T17:21:28.910Z,5.63
2023-05-06T17:23:56.347Z,8.20
2023-05-06T17:26:23.707Z,7.57
2023-05-06T17:28:51.193Z,9.80
2023-05-06T17:31:19.221Z,10.43
2023-05-06T17:33:47.005Z,11.20
2023-05-06T17:36:16.119Z,10.63
2023-05-06T17:38:43.880Z,11.18
2023-05-06T17:41:11.278Z,10.70
2023-05-06T17:43:38.591Z,11.85
2023-05-06T17:46:06.694Z,12.23
2023-05-06T17:48:34.167Z,12.45
2023-05-06T17:51:02.184Z,11.15
2023-05-06T17:53:32.343Z,13.55
2023-05-06T17:55:59.657Z,11.82
2023-05-06T17:58:26.985Z,11.97
2023-05-06T18:00:54.333Z,10.38
2023-05-06T18:03:21.835Z,9.80
2023-05-06T18:05:49.243Z,10.27
2023-05-06T18:08:16.610Z,9.85
2023-05-06T18:10:43.946Z,9.27
2023-05-06T18:13:11.407Z,9.02
2023-05-06T18:15:38.751Z,7.40
2023-05-06T18:18:06.192Z,7.80
2023-05-06T18:20:33.671Z,7.75
2023-05-06T18:23:01.088Z,7.97
2023-05-06T18:25:28.480Z,11.05
2023-05-06T18:27:55.800Z,9.30
2023-05-06T18:30:23.140Z,7.93
2023-05-06T18:32:51.712Z,9.35
2023-05-06T18:35:20.422Z,8.03
2023-05-06T18:37:47.747Z,9.00
2023-05-06T18:40:15.358Z,7.50
2023-05-06T18:42:42.683Z,8.52
2023-05-06T18:45:10.562Z,8.88
2023-05-06T18:47:40.156Z,7.73
2023-05-06T18:50:08.566Z,7.78
2023-05-06T18:52:37.602Z,9.18
2023-05-06T18:55:05.743Z,7.90
2023-05-06T18:57:33.412Z,7.50
2023-05-06T19:00:00.845Z,8.30
2023-05-06T19:02:28.733Z,10.20
2023-05-06T19:04:56.647Z,8.73
2023-05-06T19:07:24.092Z,10.07
2023-05-06T19:09:51.427Z,10.50
2023-05-06T19:12:18.821Z,8.83
2023-05-06T19:14:46.409Z,8.38
2023-05-06T19:17:16.012Z,8.70
2023-05-06T19:19:46.915Z,11.05
2023-05-06T19:22:15.442Z,11.65
2023-05-06T19:24:42.846Z,12.10
2023-05-06T19:27:13.100Z,10.85
2023-05-06T19:29:40.376Z,10.20
2023-05-06T19:32:07.713Z,11.68
2023-05-06T19:34:35.006Z,9.40
2023-05-06T19:37:02.364Z,9.20
2023-05-06T19:39:29.955Z,9.82
2023-05-06T19:41:57.244Z,11.68
2023-05-06T19:44:24.514Z,11.38
2023-05-06T19:46:54.457Z,14.02
2023-05-06T19:49:21.873Z,15.90
2023-05-06T19:51:49.290Z,15.45
2023-05-06T19:54:16.683Z,14.60
2023-05-06T19:56:44.618Z,17.92
2023-05-06T19:59:11.956Z,14.88
2023-05-06T20:01:39.337Z,15.87
2023-05-06T20:04:06.843Z,15.25
2023-05-06T20:06:34.204Z,12.43
2023-05-06T20:09:01.510Z,17.88
2023-05-06T20:11:28.855Z,21.10
2023-05-06T20:13:56.185Z,16.00
2023-05-06T20:16:23.871Z,16.25
2023-05-06T20:18:51.567Z,19.83
2023-05-06T20:21:18.853Z,17.45
2023-05-06T20:23:46.169Z,22.70
2023-05-06T20:26:13.506Z,20.03
2023-05-06T20:28:40.958Z,21.20
2023-05-06T20:31:08.348Z,20.00
2023-05-06T20:33:36.107Z,19.85
2023-05-06T20:36:04.021Z,22.27
2023-05-06T20:38:31.548Z,18.63
2023-05-06T20:40:59.372Z,25.00
2023-05-06T20:43:26.728Z,21.60
2023-05-06T20:45:54.035Z,21.25
2023-05-06T20:48:21.383Z,21.98
2023-05-06T20:50:48.752Z,20.43
2023-05-06T20:53:16.343Z,21.48
2023-05-06T20:55:43.642Z,21.02
2023-05-06T20:58:10.992Z,21.05
2023-05-06T21:00:38.311Z,20.27
2023-05-06T21:03:05.832Z,19.33
2023-05-06T21:05:33.258Z,22.20
2023-05-06T21:08:00.603Z,20.17
2023-05-06T21:10:27.874Z,22.40
2023-05-06T21:12:55.156Z,19.40
2023-05-06T21:15:22.853Z,22.27
2023-05-06T21:17:50.382Z,24.05
2023-05-06T21:20:19.177Z,22.42
2023-05-06T21:22:46.578Z,21.58
2023-05-06T21:25:14.316Z,23.02
2023-05-06T21:27:41.717Z,24.17
2023-05-06T21:30:09.415Z,23.67
2023-05-06T21:32:36.771Z,24.13
2023-05-06T21:35:04.413Z,23.13
2023-05-06T21:37:31.942Z,23.02
2023-05-06T21:40:00.052Z,20.47
2023-05-06T21:42:28.175Z,23.63
2023-05-06T21:44:55.520Z,25.63
2023-05-06T21:47:22.866Z,25.83
2023-05-06T21:49:50.402Z,26.48
2023-05-06T21:52:17.719Z,26.77
2023-05-06T21:54:46.658Z,24.30
2023-05-06T21:57:14.075Z,23.13
2023-05-06T21:59:41.597Z,24.45
2023-05-06T22:02:08.887Z,25.55
2023-05-06T22:04:36.182Z,26.00
2023-05-06T22:07:03.620Z,25.73
2023-05-06T22:09:30.976Z,22.05
2023-05-06T22:11:58.235Z,19.45
2023-05-06T22:14:30.317Z,22.95
2023-05-06T22:17:01.738Z,21.50
2023-05-06T22:19:29.119Z,23.65
2023-05-06T22:21:57.563Z,22.98
2023-05-06T22:24:25.976Z,22.67
2023-05-06T22:26:53.426Z,21.67
2023-05-06T22:29:20.898Z,23.03
2023-05-06T22:31:48.263Z,21.92
2023-05-06T22:34:15.661Z,21.17
2023-05-06T22:36:42.912Z,21.85
2023-05-06T22:39:10.296Z,20.92
2023-05-06T22:41:37.649Z,19.53
2023-05-06T22:44:05.081Z,20.55
2023-05-06T22:46:32.733Z,20.05
2023-05-06T22:49:00.176Z,19.92
2023-05-06T22:51:28.022Z,18.55
2023-05-06T22:53:55.385Z,22.00
2023-05-06T22:56:22.694Z,21.27
2023-05-06T22:58:49.934Z,20.35
2023-05-06T23:01:17.909Z,20.67
2023-05-06T23:03:45.272Z,19.65
2023-05-06T23:06:12.578Z,19.50
2023-05-06T23:08:39.905Z,21.52
2023-05-06T23:11:07.207Z,19.45
2023-05-06T23:13:36.426Z,20.42
2023-05-06T23:16:03.885Z,21.83
2023-05-06T23:18:31.190Z,22.53
2023-05-06T23:20:58.552Z,22.23
2023-05-06T23:23:26.152Z,21.38
2023-05-06T23:25:53.567Z,18.42
2023-05-06T23:28:21.153Z,20.77
2023-05-06T23:30:48.606Z,19.40
2023-05-06T23:33:16.065Z,20.25
2023-05-06T23:35:43.357Z,20.58
2023-05-06T23:38:10.732Z,21.50
2023-05-06T23:40:38.165Z,18.67
2023-05-06T23:43:09.701Z,17.17
2023-05-06T23:45:36.991Z,19.92
2023-05-06T23:48:04.464Z,19.60
2023-05-06T23:50:31.824Z,18.23
2023-05-06T23:52:59.209Z,18.63
2023-05-06T23:55:26.605Z,16.97
2023-05-06T23:57:54.068Z,18.20
